LA HONDA (LAH)

Elevation: 425' · SAN GREGORIO CR basin · Operator: CAL FIRE

Query executed Sunday at 19:16:03   clock

Provisional data, subject to change.
Select a sensor type for a plot of data.

Earlier

Date   /   Time   RAIN     TEMP     REL HUM     FUEL MS     FUEL TP     WIND SP     WIND DR     PEAK WS     PEAK WD     SOLAR R     BAT VOL    
(PDT)INCHES   DEG F   %   %   DEG F   MPH   DEG   MPH   DEG   W/M^2   VOLTS  
04/19/2014 19:00 14.47 54 87 11 56 3 293 10 285 60.00 13.6
04/19/2014 20:00 14.47 53 95 13 53 3 264 7 3 6.00 13.4
04/19/2014 21:00 14.47 52 97 16 53 1 230 6 48 0.00 13.2
04/19/2014 22:00 14.47 52 98 20 52 1 259 4 246 0.00 13.1
04/19/2014 23:00 14.47 51 98 21 52 1 181 5 227 0.00 13.0
04/20/2014 00:00 14.47 51 98 22 51 1 94 4 96 0.00 12.9
04/20/2014 01:00 14.47 50 98 23 50 2 62 4 72 0.00 12.8
04/20/2014 02:00 14.47 49 98 24 49 3 65 4 78 0.00 12.8
04/20/2014 03:00 14.47 48 99 24 49 2 23 5 67 0.00 12.8
04/20/2014 04:00 14.47 47 99 24 48 2 57 4 65 0.00 12.8
04/20/2014 05:00 14.47 45 99 24 43 4 93 5 68 0.00 12.7
04/20/2014 06:00 14.47 43 99 25 40 2 92 5 78 0.00 12.7
04/20/2014 07:00 14.47 46 100 26 42 2 125 5 97 13.00 12.7
04/20/2014 08:00 14.47 55 98 25 53 2 306 7 3 136.00 13.7
04/20/2014 09:00 14.47 64 65 24 61 3 294 10 2 315.00 13.9
04/20/2014 10:00 14.47 68 58 21 69 8 34 14 33 505.00 13.9
04/20/2014 11:00 14.47 72 45 15 73 5 20 13 22 667.00 13.7
04/20/2014 12:00 14.47 75 37 12 84 4 271 14 47 787.00 13.7
04/20/2014 13:00 14.47 77 47 9 91 3 300 12 230 851.00 13.6
04/20/2014 14:00 14.47 79 42 9 83 5 267 8 239 851.00 13.5
04/20/2014 15:00 14.47 76 43 8 85 4 263 9 309 806.00 13.5
04/20/2014 16:00 14.47 75 38 8 90 4 245 8 298 699.00 13.5
04/20/2014 17:00 14.47 70 44 8 81 4 258 8 250 544.00 13.8
04/20/2014 18:00 14.47 65 52 8 70 3 256 8 222 359.00 13.9
04/20/2014 19:00 14.47 60 59 9 56 2 274 6 222 85.00 13.5

Later | Latest

Warning! This data is preliminary and subject to revision.

Download Data Now Download Data Now | Show LAH Map | 24 Hours LAH Data | Plot all LAH Sensors | Daily LAH Data | LAH Info